Biggsville, Illinois
Current Conditions -  °F | °C
As of 8:10 AM on Sunday 23 Nov 2014 (Local Time) from KBRL Reporting Station
Light Rain Light Rain  
Wind Chill: 10°   Ceiling: 5000
Heat Index: 10°   Visibility: 3mi
Dew Point:   Wind: 8mph
Humidity: 96%   Direction: 170°S
Pressure: 29.62"   Gusts: NA
Location:  40.85°N, 90.86°W
Report Text: KBRL 231410Z AUTO 17007KT 3SM -RA BR FEW007 BKN050 OVC080 10/09 A2962 RMK AO2 P0002 T01000094 $
Loading
Personal Weather Stations






























Interactive Weather Map New forecast layout! Learn more

10-Day Weather Forecast

Advertisements
Track Severe Weather on mobile